sensor_id;sensor_type;location;lat;lon;timestamp;pressure;altitude;pressure_sealevel;temperature;humidity
70468;BME280;57934;51.532;7.684;2024-03-17T00:00:21;101126.22;;;6.17;nan
70468;BME280;57934;51.532;7.684;2024-03-17T00:02:47;101117.69;;;6.15;nan
70468;BME280;57934;51.532;7.684;2024-03-17T00:05:13;101117.44;;;6.09;nan
70468;BME280;57934;51.532;7.684;2024-03-17T00:07:40;101119.53;;;6.05;nan
70468;BME280;57934;51.532;7.684;2024-03-17T00:10:06;101110.59;;;5.98;nan
70468;BME280;57934;51.532;7.684;2024-03-17T00:12:37;101124.94;;;5.94;nan
70468;BME280;57934;51.532;7.684;2024-03-17T00:15:04;101115.81;;;5.88;nan
70468;BME280;57934;51.532;7.684;2024-03-17T00:17:30;101116.09;;;5.85;nan
70468;BME280;57934;51.532;7.684;2024-03-17T00:19:56;101120.13;;;5.80;nan
70468;BME280;57934;51.532;7.684;2024-03-17T00:22:22;101118.59;;;5.77;nan
70468;BME280;57934;51.532;7.684;2024-03-17T00:24:48;101120.81;;;5.72;nan
70468;BME280;57934;51.532;7.684;2024-03-17T00:27:14;101121.22;;;5.77;nan
70468;BME280;57934;51.532;7.684;2024-03-17T00:29:40;101114.63;;;5.73;nan
70468;BME280;57934;51.532;7.684;2024-03-17T00:32:06;101114.47;;;5.65;nan
70468;BME280;57934;51.532;7.684;2024-03-17T00:34:33;101110.09;;;5.65;nan
70468;BME280;57934;51.532;7.684;2024-03-17T00:36:59;101117.66;;;5.68;nan
70468;BME280;57934;51.532;7.684;2024-03-17T00:39:28;101112.13;;;5.71;nan
70468;BME280;57934;51.532;7.684;2024-03-17T00:41:54;101106.50;;;5.66;nan
70468;BME280;57934;51.532;7.684;2024-03-17T00:44:20;101104.59;;;5.59;nan
70468;BME280;57934;51.532;7.684;2024-03-17T00:46:47;101111.75;;;5.57;nan
70468;BME280;57934;51.532;7.684;2024-03-17T00:49:14;101110.94;;;5.66;nan
70468;BME280;57934;51.532;7.684;2024-03-17T00:51:40;101104.19;;;5.54;nan
70468;BME280;57934;51.532;7.684;2024-03-17T00:54:06;101101.03;;;5.50;nan
70468;BME280;57934;51.532;7.684;2024-03-17T00:56:32;101096.75;;;5.49;nan
70468;BME280;57934;51.532;7.684;2024-03-17T00:58:57;101097.03;;;5.56;nan
70468;BME280;57934;51.532;7.684;2024-03-17T01:01:23;101091.38;;;5.50;nan
70468;BME280;57934;51.532;7.684;2024-03-17T01:03:50;101086.16;;;5.50;nan
70468;BME280;57934;51.532;7.684;2024-03-17T01:06:16;101084.13;;;5.44;nan
70468;BME280;57934;51.532;7.684;2024-03-17T01:08:42;101087.81;;;5.42;nan
70468;BME280;57934;51.532;7.684;2024-03-17T01:11:16;101078.75;;;5.36;nan
70468;BME280;57934;51.532;7.684;2024-03-17T01:13:47;101074.09;;;5.30;nan
70468;BME280;57934;51.532;7.684;2024-03-17T01:16:13;101079.88;;;5.24;nan
70468;BME280;57934;51.532;7.684;2024-03-17T01:18:39;101080.25;;;5.29;nan
70468;BME280;57934;51.532;7.684;2024-03-17T01:21:06;101079.88;;;5.24;nan
70468;BME280;57934;51.532;7.684;2024-03-17T01:23:32;101071.31;;;5.22;nan
70468;BME280;57934;51.532;7.684;2024-03-17T01:25:58;101074.63;;;5.24;nan
70468;BME280;57934;51.532;7.684;2024-03-17T01:28:24;101066.78;;;5.24;nan
70468;BME280;57934;51.532;7.684;2024-03-17T01:30:50;101061.13;;;5.19;nan
70468;BME280;57934;51.532;7.684;2024-03-17T01:33:16;101061.72;;;5.13;nan
70468;BME280;57934;51.532;7.684;2024-03-17T01:35:43;101059.78;;;5.05;nan
70468;BME280;57934;51.532;7.684;2024-03-17T01:38:09;101066.66;;;5.06;nan
70468;BME280;57934;51.532;7.684;2024-03-17T01:40:38;101057.16;;;5.05;nan
70468;BME280;57934;51.532;7.684;2024-03-17T01:43:04;101050.00;;;4.97;nan
70468;BME280;57934;51.532;7.684;2024-03-17T01:45:32;101055.78;;;4.91;nan
70468;BME280;57934;51.532;7.684;2024-03-17T01:48:00;101052.06;;;4.84;nan
70468;BME280;57934;51.532;7.684;2024-03-17T01:50:36;101048.25;;;4.88;nan
70468;BME280;57934;51.532;7.684;2024-03-17T01:53:05;101047.13;;;4.91;nan
70468;BME280;57934;51.532;7.684;2024-03-17T01:55:33;101042.88;;;4.90;nan
70468;BME280;57934;51.532;7.684;2024-03-17T01:58:02;101046.03;;;4.93;nan
70468;BME280;57934;51.532;7.684;2024-03-17T02:00:29;101049.19;;;4.87;nan
70468;BME280;57934;51.532;7.684;2024-03-17T02:02:57;101051.78;;;4.87;nan
70468;BME280;57934;51.532;7.684;2024-03-17T02:05:23;101048.50;;;4.85;nan
70468;BME280;57934;51.532;7.684;2024-03-17T02:07:49;101047.69;;;4.85;nan
70468;BME280;57934;51.532;7.684;2024-03-17T02:10:15;101040.78;;;4.84;nan
70468;BME280;57934;51.532;7.684;2024-03-17T02:12:42;101039.97;;;4.83;nan
70468;BME280;57934;51.532;7.684;2024-03-17T02:15:08;101043.69;;;4.81;nan
70468;BME280;57934;51.532;7.684;2024-03-17T02:17:34;101042.88;;;4.70;nan
70468;BME280;57934;51.532;7.684;2024-03-17T02:20:00;101030.34;;;4.64;nan
70468;BME280;57934;51.532;7.684;2024-03-17T02:22:27;101042.84;;;4.61;nan
70468;BME280;57934;51.532;7.684;2024-03-17T02:24:56;101038.59;;;4.69;nan
70468;BME280;57934;51.532;7.684;2024-03-17T02:27:22;101038.56;;;4.60;nan
70468;BME280;57934;51.532;7.684;2024-03-17T02:29:47;101036.53;;;4.53;nan
70468;BME280;57934;51.532;7.684;2024-03-17T02:32:14;101039.41;;;4.60;nan
70468;BME280;57934;51.532;7.684;2024-03-17T02:34:40;101030.72;;;4.60;nan
70468;BME280;57934;51.532;7.684;2024-03-17T02:37:06;101032.53;;;4.49;nan
70468;BME280;57934;51.532;7.684;2024-03-17T02:39:34;101034.59;;;4.46;nan
70468;BME280;57934;51.532;7.684;2024-03-17T02:42:01;101032.81;;;4.46;nan
70468;BME280;57934;51.532;7.684;2024-03-17T02:44:29;101028.13;;;4.50;nan
70468;BME280;57934;51.532;7.684;2024-03-17T02:47:00;101027.16;;;4.51;nan
70468;BME280;57934;51.532;7.684;2024-03-17T02:49:27;101029.22;;;4.47;nan
70468;BME280;57934;51.532;7.684;2024-03-17T02:51:54;101027.13;;;4.41;nan
70468;BME280;57934;51.532;7.684;2024-03-17T02:54:21;101020.69;;;4.45;nan
70468;BME280;57934;51.532;7.684;2024-03-17T02:56:48;101028.94;;;4.41;nan
70468;BME280;57934;51.532;7.684;2024-03-17T02:59:14;101032.38;;;4.41;nan
70468;BME280;57934;51.532;7.684;2024-03-17T03:01:40;101026.47;;;4.39;nan
70468;BME280;57934;51.532;7.684;2024-03-17T03:04:06;101023.41;;;4.34;nan
70468;BME280;57934;51.532;7.684;2024-03-17T03:06:33;101026.56;;;4.28;nan
70468;BME280;57934;51.532;7.684;2024-03-17T03:08:59;101026.84;;;4.25;nan
70468;BME280;57934;51.532;7.684;2024-03-17T03:11:25;101022.03;;;4.30;nan
70468;BME280;57934;51.532;7.684;2024-03-17T03:13:51;101029.75;;;4.41;nan
70468;BME280;57934;51.532;7.684;2024-03-17T03:16:17;101032.25;;;4.43;nan
70468;BME280;57934;51.532;7.684;2024-03-17T03:18:46;101033.34;;;4.40;nan
70468;BME280;57934;51.532;7.684;2024-03-17T03:21:12;101023.97;;;4.38;nan
70468;BME280;57934;51.532;7.684;2024-03-17T03:23:38;101025.22;;;4.43;nan
70468;BME280;57934;51.532;7.684;2024-03-17T03:26:05;101030.00;;;4.38;nan
70468;BME280;57934;51.532;7.684;2024-03-17T03:28:36;101031.69;;;4.39;nan
70468;BME280;57934;51.532;7.684;2024-03-17T03:31:02;101030.16;;;4.37;nan
70468;BME280;57934;51.532;7.684;2024-03-17T03:33:28;101028.78;;;4.33;nan
70468;BME280;57934;51.532;7.684;2024-03-17T03:35:54;101023.72;;;4.41;nan
70468;BME280;57934;51.532;7.684;2024-03-17T03:38:21;101020.28;;;4.40;nan
70468;BME280;57934;51.532;7.684;2024-03-17T03:40:48;101020.13;;;4.42;nan
70468;BME280;57934;51.532;7.684;2024-03-17T03:43:15;101015.47;;;4.36;nan
70468;BME280;57934;51.532;7.684;2024-03-17T03:45:41;101016.03;;;4.39;nan
70468;BME280;57934;51.532;7.684;2024-03-17T03:48:08;101014.06;;;4.31;nan
70468;BME280;57934;51.532;7.684;2024-03-17T03:50:35;101008.06;;;4.50;nan
70468;BME280;57934;51.532;7.684;2024-03-17T03:53:01;101013.16;;;4.42;nan
70468;BME280;57934;51.532;7.684;2024-03-17T03:55:27;101017.22;;;4.35;nan
70468;BME280;57934;51.532;7.684;2024-03-17T03:57:53;101010.91;;;4.28;nan
70468;BME280;57934;51.532;7.684;2024-03-17T04:00:19;101008.59;;;4.25;nan
70468;BME280;57934;51.532;7.684;2024-03-17T04:02:50;101008.28;;;4.18;nan
70468;BME280;57934;51.532;7.684;2024-03-17T04:05:18;101004.44;;;4.22;nan
70468;BME280;57934;51.532;7.684;2024-03-17T04:07:45;101011.56;;;4.20;nan
70468;BME280;57934;51.532;7.684;2024-03-17T04:10:13;101009.00;;;4.30;nan
70468;BME280;57934;51.532;7.684;2024-03-17T04:12:39;101012.13;;;4.24;nan
70468;BME280;57934;51.532;7.684;2024-03-17T04:15:06;101018.72;;;4.28;nan
70468;BME280;57934;51.532;7.684;2024-03-17T04:17:33;101013.50;;;4.28;nan
70468;BME280;57934;51.532;7.684;2024-03-17T04:19:59;101016.66;;;4.31;nan
70468;BME280;57934;51.532;7.684;2024-03-17T04:22:25;101016.00;;;4.29;nan
70468;BME280;57934;51.532;7.684;2024-03-17T04:24:51;101005.00;;;4.26;nan
70468;BME280;57934;51.532;7.684;2024-03-17T04:27:25;101014.06;;;4.31;nan
70468;BME280;57934;51.532;7.684;2024-03-17T04:29:55;101013.16;;;4.42;nan
70468;BME280;57934;51.532;7.684;2024-03-17T04:32:23;101011.88;;;4.37;nan
70468;BME280;57934;51.532;7.684;2024-03-17T04:34:49;101014.22;;;4.40;nan
70468;BME280;57934;51.532;7.684;2024-03-17T04:37:16;101009.94;;;4.39;nan
70468;BME280;57934;51.532;7.684;2024-03-17T04:39:44;101013.94;;;4.33;nan
70468;BME280;57934;51.532;7.684;2024-03-17T04:42:14;101022.03;;;4.30;nan
70468;BME280;57934;51.532;7.684;2024-03-17T04:44:41;101019.72;;;4.37;nan
70468;BME280;57934;51.532;7.684;2024-03-17T04:47:08;101004.75;;;4.48;nan
70468;BME280;57934;51.532;7.684;2024-03-17T04:49:38;101005.13;;;4.34;nan
70468;BME280;57934;51.532;7.684;2024-03-17T04:52:04;101009.13;;;4.28;nan
70468;BME280;57934;51.532;7.684;2024-03-17T04:54:31;101006.38;;;4.30;nan
70468;BME280;57934;51.532;7.684;2024-03-17T04:56:58;101005.28;;;4.33;nan
70468;BME280;57934;51.532;7.684;2024-03-17T04:59:24;101009.41;;;4.35;nan
70468;BME280;57934;51.532;7.684;2024-03-17T05:01:51;101001.84;;;4.42;nan
70468;BME280;57934;51.532;7.684;2024-03-17T05:04:17;101001.44;;;4.37;nan
70468;BME280;57934;51.532;7.684;2024-03-17T05:06:44;101001.56;;;4.35;nan
70468;BME280;57934;51.532;7.684;2024-03-17T05:09:13;100992.09;;;4.34;nan
70468;BME280;57934;51.532;7.684;2024-03-17T05:11:42;100992.34;;;4.31;nan
70468;BME280;57934;51.532;7.684;2024-03-17T05:14:09;100981.91;;;4.31;nan
70468;BME280;57934;51.532;7.684;2024-03-17T05:16:36;100991.69;;;4.29;nan
70468;BME280;57934;51.532;7.684;2024-03-17T05:19:03;100982.47;;;4.35;nan
70468;BME280;57934;51.532;7.684;2024-03-17T05:21:30;100983.84;;;4.29;nan
70468;BME280;57934;51.532;7.684;2024-03-17T05:24:01;100980.53;;;4.27;nan
70468;BME280;57934;51.532;7.684;2024-03-17T05:26:27;100978.91;;;4.26;nan
70468;BME280;57934;51.532;7.684;2024-03-17T05:28:53;100974.66;;;4.25;nan
70468;BME280;57934;51.532;7.684;2024-03-17T05:31:20;100970.38;;;4.24;nan
70468;BME280;57934;51.532;7.684;2024-03-17T05:33:48;100975.31;;;4.27;nan
70468;BME280;57934;51.532;7.684;2024-03-17T05:36:14;100972.59;;;4.28;nan
70468;BME280;57934;51.532;7.684;2024-03-17T05:38:41;100987.97;;;4.22;nan
70468;BME280;57934;51.532;7.684;2024-03-17T05:41:09;100983.28;;;4.16;nan
70468;BME280;57934;51.532;7.684;2024-03-17T05:43:36;100989.31;;;4.16;nan
70468;BME280;57934;51.532;7.684;2024-03-17T05:46:05;100983.41;;;4.14;nan
70468;BME280;57934;51.532;7.684;2024-03-17T05:48:40;100996.72;;;4.11;nan
70468;BME280;57934;51.532;7.684;2024-03-17T05:51:07;100985.75;;;4.27;nan
70468;BME280;57934;51.532;7.684;2024-03-17T05:53:35;100982.44;;;4.15;nan
70468;BME280;57934;51.532;7.684;2024-03-17T05:56:02;100986.28;;;4.11;nan
70468;BME280;57934;51.532;7.684;2024-03-17T05:58:29;100976.97;;;4.18;nan
70468;BME280;57934;51.532;7.684;2024-03-17T06:00:55;100987.97;;;4.22;nan
70468;BME280;57934;51.532;7.684;2024-03-17T06:03:22;100987.69;;;4.25;nan
70468;BME280;57934;51.532;7.684;2024-03-17T06:05:48;100983.56;;;4.22;nan
70468;BME280;57934;51.532;7.684;2024-03-17T06:08:14;100976.97;;;4.28;nan
70468;BME280;57934;51.532;7.684;2024-03-17T06:10:45;100976.41;;;4.24;nan
70468;BME280;57934;51.532;7.684;2024-03-17T06:13:12;100969.84;;;4.30;nan
70468;BME280;57934;51.532;7.684;2024-03-17T06:15:39;100980.84;;;4.43;nan
70468;BME280;57934;51.532;7.684;2024-03-17T06:18:06;100985.81;;;4.46;nan
70468;BME280;57934;51.532;7.684;2024-03-17T06:20:43;100981.09;;;4.60;nan
70468;BME280;57934;51.532;7.684;2024-03-17T06:23:13;100984.69;;;4.68;nan
70468;BME280;57934;51.532;7.684;2024-03-17T06:25:47;100987.31;;;4.68;nan
70468;BME280;57934;51.532;7.684;2024-03-17T06:28:17;100982.91;;;4.69;nan
70468;BME280;57934;51.532;7.684;2024-03-17T06:30:43;100983.34;;;4.74;nan
70468;BME280;57934;51.532;7.684;2024-03-17T06:33:13;100984.84;;;4.76;nan
70468;BME280;57934;51.532;7.684;2024-03-17T06:35:39;100985.38;;;4.80;nan
70468;BME280;57934;51.532;7.684;2024-03-17T06:38:05;100980.69;;;4.84;nan
70468;BME280;57934;51.532;7.684;2024-03-17T06:40:39;100983.84;;;4.87;nan
70468;BME280;57934;51.532;7.684;2024-03-17T06:43:05;100983.16;;;5.05;nan
70468;BME280;57934;51.532;7.684;2024-03-17T06:45:32;100975.75;;;5.10;nan
70468;BME280;57934;51.532;7.684;2024-03-17T06:47:58;100979.53;;;5.25;nan
70468;BME280;57934;51.532;7.684;2024-03-17T06:50:24;100974.31;;;5.25;nan
70468;BME280;57934;51.532;7.684;2024-03-17T06:52:50;100981.72;;;5.39;nan
70468;BME280;57934;51.532;7.684;2024-03-17T06:55:18;100974.53;;;5.51;nan
70468;BME280;57934;51.532;7.684;2024-03-17T06:57:47;100968.66;;;5.67;nan
70468;BME280;57934;51.532;7.684;2024-03-17T07:00:14;100963.50;;;5.85;nan
70468;BME280;57934;51.532;7.684;2024-03-17T07:02:40;100957.00;;;5.89;nan
70468;BME280;57934;51.532;7.684;2024-03-17T07:05:13;100955.34;;;5.97;nan
70468;BME280;57934;51.532;7.684;2024-03-17T07:07:43;100956.00;;;6.00;nan
70468;BME280;57934;51.532;7.684;2024-03-17T07:10:10;100954.97;;;6.10;nan
70468;BME280;57934;51.532;7.684;2024-03-17T07:12:41;100960.59;;;6.15;nan
70468;BME280;57934;51.532;7.684;2024-03-17T07:15:07;100962.19;;;6.26;nan
70468;BME280;57934;51.532;7.684;2024-03-17T07:17:34;100970.50;;;6.21;nan
70468;BME280;57934;51.532;7.684;2024-03-17T07:20:00;100966.84;;;6.32;nan
70468;BME280;57934;51.532;7.684;2024-03-17T07:22:27;100971.03;;;6.25;nan
70468;BME280;57934;51.532;7.684;2024-03-17T07:24:54;100962.47;;;6.23;nan
70468;BME280;57934;51.532;7.684;2024-03-17T07:27:27;100957.25;;;6.23;nan
70468;BME280;57934;51.532;7.684;2024-03-17T07:29:53;100970.69;;;6.28;nan
70468;BME280;57934;51.532;7.684;2024-03-17T07:32:19;100956.06;;;6.35;nan
70468;BME280;57934;51.532;7.684;2024-03-17T07:34:45;100952.16;;;6.39;nan
70468;BME280;57934;51.532;7.684;2024-03-17T07:37:11;100953.22;;;6.47;nan
70468;BME280;57934;51.532;7.684;2024-03-17T07:39:37;100952.00;;;6.59;nan
70468;BME280;57934;51.532;7.684;2024-03-17T07:42:04;100952.63;;;6.71;nan
70468;BME280;57934;51.532;7.684;2024-03-17T07:44:30;100954.34;;;6.88;nan
70468;BME280;57934;51.532;7.684;2024-03-17T07:47:03;100955.81;;;7.08;nan
70468;BME280;57934;51.532;7.684;2024-03-17T07:49:30;100947.84;;;7.18;nan
70468;BME280;57934;51.532;7.684;2024-03-17T07:51:57;100951.19;;;7.28;nan
70468;BME280;57934;51.532;7.684;2024-03-17T07:54:26;100949.22;;;7.56;nan
70468;BME280;57934;51.532;7.684;2024-03-17T07:56:53;100945.44;;;8.01;nan
70468;BME280;57934;51.532;7.684;2024-03-17T07:59:19;100945.38;;;8.35;nan
70468;BME280;57934;51.532;7.684;2024-03-17T08:01:45;100944.06;;;8.56;nan
70468;BME280;57934;51.532;7.684;2024-03-17T08:04:11;100949.34;;;8.80;nan
70468;BME280;57934;51.532;7.684;2024-03-17T08:06:40;100959.88;;;8.89;nan
70468;BME280;57934;51.532;7.684;2024-03-17T08:09:08;100953.59;;;9.14;nan
70468;BME280;57934;51.532;7.684;2024-03-17T08:11:35;100951.41;;;9.26;nan
70468;BME280;57934;51.532;7.684;2024-03-17T08:14:01;100952.75;;;9.77;nan
70468;BME280;57934;51.532;7.684;2024-03-17T08:16:27;100951.34;;;10.29;nan
70468;BME280;57934;51.532;7.684;2024-03-17T08:18:56;100951.91;;;10.62;nan
70468;BME280;57934;51.532;7.684;2024-03-17T08:21:22;100949.47;;;10.98;nan
70468;BME280;57934;51.532;7.684;2024-03-17T08:23:48;100935.38;;;11.95;nan
70468;BME280;57934;51.532;7.684;2024-03-17T08:26:14;100933.25;;;12.48;nan
70468;BME280;57934;51.532;7.684;2024-03-17T08:28:40;100930.41;;;12.71;nan
70468;BME280;57934;51.532;7.684;2024-03-17T08:31:06;100928.91;;;12.40;nan
70468;BME280;57934;51.532;7.684;2024-03-17T08:33:32;100933.50;;;12.32;nan
70468;BME280;57934;51.532;7.684;2024-03-17T08:36:06;100938.56;;;11.61;nan
70468;BME280;57934;51.532;7.684;2024-03-17T08:38:36;100940.38;;;11.16;nan
70468;BME280;57934;51.532;7.684;2024-03-17T08:41:07;100946.56;;;11.08;nan
70468;BME280;57934;51.532;7.684;2024-03-17T08:43:35;100956.66;;;10.90;nan
70468;BME280;57934;51.532;7.684;2024-03-17T08:46:03;100959.72;;;10.79;nan
70468;BME280;57934;51.532;7.684;2024-03-17T08:48:40;100960.63;;;10.86;nan
70468;BME280;57934;51.532;7.684;2024-03-17T08:51:08;100957.69;;;10.81;nan
70468;BME280;57934;51.532;7.684;2024-03-17T08:53:35;100947.00;;;10.82;nan
70468;BME280;57934;51.532;7.684;2024-03-17T08:56:03;100945.16;;;10.83;nan
70468;BME280;57934;51.532;7.684;2024-03-17T08:58:29;100946.16;;;12.15;nan
70468;BME280;57934;51.532;7.684;2024-03-17T09:00:55;100944.66;;;14.16;nan
70468;BME280;57934;51.532;7.684;2024-03-17T09:03:22;100951.19;;;14.20;nan
70468;BME280;57934;51.532;7.684;2024-03-17T09:05:48;100957.44;;;14.53;nan
70468;BME280;57934;51.532;7.684;2024-03-17T09:08:17;100962.31;;;13.89;nan
70468;BME280;57934;51.532;7.684;2024-03-17T09:10:44;100972.66;;;13.35;nan
70468;BME280;57934;51.532;7.684;2024-03-17T09:13:13;100978.94;;;12.57;nan
70468;BME280;57934;51.532;7.684;2024-03-17T09:15:41;100976.00;;;12.30;nan
70468;BME280;57934;51.532;7.684;2024-03-17T09:18:07;100977.97;;;12.22;nan
70468;BME280;57934;51.532;7.684;2024-03-17T09:20:33;100980.50;;;12.30;nan
70468;BME280;57934;51.532;7.684;2024-03-17T09:22:59;100976.09;;;12.58;nan
70468;BME280;57934;51.532;7.684;2024-03-17T09:25:25;100961.72;;;12.89;nan
70468;BME280;57934;51.532;7.684;2024-03-17T09:27:51;100960.78;;;13.59;nan
70468;BME280;57934;51.532;7.684;2024-03-17T09:30:17;100969.19;;;14.31;nan
70468;BME280;57934;51.532;7.684;2024-03-17T09:32:43;100957.44;;;14.80;nan
70468;BME280;57934;51.532;7.684;2024-03-17T09:35:10;100961.72;;;14.68;nan
70468;BME280;57934;51.532;7.684;2024-03-17T09:37:36;100953.16;;;14.86;nan
70468;BME280;57934;51.532;7.684;2024-03-17T09:40:02;100946.97;;;15.32;nan
70468;BME280;57934;51.532;7.684;2024-03-17T09:42:32;100934.59;;;16.47;nan
70468;BME280;57934;51.532;7.684;2024-03-17T09:44:58;100930.91;;;16.98;nan
70468;BME280;57934;51.532;7.684;2024-03-17T09:47:24;100942.56;;;17.22;nan
70468;BME280;57934;51.532;7.684;2024-03-17T09:49:52;100935.59;;;16.46;nan
70468;BME280;57934;51.532;7.684;2024-03-17T09:52:20;100928.88;;;16.75;nan
70468;BME280;57934;51.532;7.684;2024-03-17T09:55:08;100933.56;;;15.71;nan
70468;BME280;57934;51.532;7.684;2024-03-17T09:57:39;100934.25;;;15.40;nan
70468;BME280;57934;51.532;7.684;2024-03-17T10:00:11;100927.06;;;15.47;nan
70468;BME280;57934;51.532;7.684;2024-03-17T10:02:43;100924.75;;;15.06;nan
70468;BME280;57934;51.532;7.684;2024-03-17T10:05:23;100916.50;;;15.92;nan
70468;BME280;57934;51.532;7.684;2024-03-17T10:07:50;100925.59;;;15.71;nan
70468;BME280;57934;51.532;7.684;2024-03-17T10:10:18;100925.97;;;15.82;nan
70468;BME280;57934;51.532;7.684;2024-03-17T10:12:51;100927.88;;;16.06;nan
70468;BME280;57934;51.532;7.684;2024-03-17T10:15:18;100932.16;;;15.69;nan
70468;BME280;57934;51.532;7.684;2024-03-17T10:17:44;100944.19;;;15.65;nan
70468;BME280;57934;51.532;7.684;2024-03-17T10:20:18;100941.50;;;15.07;nan
70468;BME280;57934;51.532;7.684;2024-03-17T10:22:57;100932.13;;;16.14;nan
70468;BME280;57934;51.532;7.684;2024-03-17T10:25:31;100932.81;;;17.34;nan
70468;BME280;57934;51.532;7.684;2024-03-17T10:27:57;100924.94;;;17.58;nan
70468;BME280;57934;51.532;7.684;2024-03-17T10:30:24;100922.69;;;17.92;nan
70468;BME280;57934;51.532;7.684;2024-03-17T10:32:56;100920.28;;;17.90;nan
70468;BME280;57934;51.532;7.684;2024-03-17T10:35:27;100920.63;;;17.94;nan
70468;BME280;57934;51.532;7.684;2024-03-17T10:38:03;100916.13;;;17.21;nan
70468;BME280;57934;51.532;7.684;2024-03-17T10:40:32;100917.59;;;15.65;nan
70468;BME280;57934;51.532;7.684;2024-03-17T10:43:05;100933.84;;;15.37;nan
70468;BME280;57934;51.532;7.684;2024-03-17T10:45:33;100925.66;;;15.45;nan
70468;BME280;57934;51.532;7.684;2024-03-17T10:48:08;100934.78;;;14.64;nan
70468;BME280;57934;51.532;7.684;2024-03-17T10:50:39;100926.19;;;14.62;nan
70468;BME280;57934;51.532;7.684;2024-03-17T10:53:06;100927.81;;;14.63;nan
70468;BME280;57934;51.532;7.684;2024-03-17T10:55:43;100924.34;;;14.69;nan
70468;BME280;57934;51.532;7.684;2024-03-17T10:58:36;100923.34;;;14.57;nan
70468;BME280;57934;51.532;7.684;2024-03-17T11:01:13;100927.09;;;14.01;nan
70468;BME280;57934;51.532;7.684;2024-03-17T11:03:39;100921.78;;;14.01;nan
70468;BME280;57934;51.532;7.684;2024-03-17T11:06:07;100920.78;;;14.16;nan
70468;BME280;57934;51.532;7.684;2024-03-17T11:08:34;100924.31;;;14.36;nan
70468;BME280;57934;51.532;7.684;2024-03-17T11:11:01;100919.00;;;14.43;nan
70468;BME280;57934;51.532;7.684;2024-03-17T11:13:30;100919.84;;;14.56;nan
70468;BME280;57934;51.532;7.684;2024-03-17T11:15:57;100918.78;;;14.31;nan
70468;BME280;57934;51.532;7.684;2024-03-17T11:23:41;100919.19;;;14.15;nan
70468;BME280;57934;51.532;7.684;2024-03-17T11:26:08;100914.88;;;14.20;nan
70468;BME280;57934;51.532;7.684;2024-03-17T11:28:44;100923.13;;;14.78;nan
70468;BME280;57934;51.532;7.684;2024-03-17T11:31:42;100914.13;;;14.46;nan
70468;BME280;57934;51.532;7.684;2024-03-17T11:34:34;100913.31;;;14.86;nan
70468;BME280;57934;51.532;7.684;2024-03-17T11:37:02;100912.69;;;14.97;nan
70468;BME280;57934;51.532;7.684;2024-03-17T11:39:50;100908.31;;;15.29;nan
70468;BME280;57934;51.532;7.684;2024-03-17T11:42:19;100909.84;;;15.63;nan
70468;BME280;57934;51.532;7.684;2024-03-17T11:44:56;100914.44;;;15.36;nan
70468;BME280;57934;51.532;7.684;2024-03-17T11:47:32;100913.88;;;15.79;nan
70468;BME280;57934;51.532;7.684;2024-03-17T11:50:02;100909.34;;;16.25;nan
70468;BME280;57934;51.532;7.684;2024-03-17T11:52:28;100914.22;;;16.28;nan
70468;BME280;57934;51.532;7.684;2024-03-17T11:54:54;100914.44;;;16.58;nan
70468;BME280;57934;51.532;7.684;2024-03-17T11:57:23;100912.28;;;16.41;nan
70468;BME280;57934;51.532;7.684;2024-03-17T11:59:49;100905.16;;;16.35;nan
70468;BME280;57934;51.532;7.684;2024-03-17T12:04:49;100895.28;;;16.42;nan
70468;BME280;57934;51.532;7.684;2024-03-17T12:07:17;100902.88;;;16.96;nan
70468;BME280;57934;51.532;7.684;2024-03-17T12:09:45;100903.38;;;16.29;nan
70468;BME280;57934;51.532;7.684;2024-03-17T12:12:21;100896.97;;;16.62;nan
70468;BME280;57934;51.532;7.684;2024-03-17T12:14:48;100893.94;;;16.33;nan
70468;BME280;57934;51.532;7.684;2024-03-17T12:17:19;100890.63;;;16.38;nan
70468;BME280;57934;51.532;7.684;2024-03-17T12:19:46;100891.53;;;16.25;nan
70468;BME280;57934;51.532;7.684;2024-03-17T12:22:23;100894.78;;;16.27;nan
70468;BME280;57934;51.532;7.684;2024-03-17T12:24:53;100886.03;;;16.20;nan
70468;BME280;57934;51.532;7.684;2024-03-17T12:27:21;100876.88;;;16.41;nan
70468;BME280;57934;51.532;7.684;2024-03-17T12:29:51;100877.94;;;16.08;nan
70468;BME280;57934;51.532;7.684;2024-03-17T12:32:24;100869.84;;;15.90;nan
70468;BME280;57934;51.532;7.684;2024-03-17T12:34:52;100873.22;;;15.72;nan
70468;BME280;57934;51.532;7.684;2024-03-17T12:37:23;100874.56;;;15.43;nan
70468;BME280;57934;51.532;7.684;2024-03-17T12:39:51;100881.16;;;15.27;nan
70468;BME280;57934;51.532;7.684;2024-03-17T12:42:24;100868.88;;;15.26;nan
70468;BME280;57934;51.532;7.684;2024-03-17T12:44:55;100870.56;;;15.14;nan
70468;BME280;57934;51.532;7.684;2024-03-17T12:47:28;100860.41;;;14.84;nan
70468;BME280;57934;51.532;7.684;2024-03-17T12:49:55;100854.47;;;14.95;nan
70468;BME280;57934;51.532;7.684;2024-03-17T12:52:32;100853.06;;;14.66;nan
70468;BME280;57934;51.532;7.684;2024-03-17T12:55:02;100844.72;;;14.56;nan
70468;BME280;57934;51.532;7.684;2024-03-17T12:57:48;100846.97;;;14.39;nan
70468;BME280;57934;51.532;7.684;2024-03-17T13:00:33;100834.69;;;14.38;nan
70468;BME280;57934;51.532;7.684;2024-03-17T13:03:07;100833.66;;;14.46;nan
70468;BME280;57934;51.532;7.684;2024-03-17T13:05:36;100826.53;;;14.06;nan
70468;BME280;57934;51.532;7.684;2024-03-17T13:08:03;100824.28;;;14.37;nan
70468;BME280;57934;51.532;7.684;2024-03-17T13:10:30;100824.47;;;14.88;nan
70468;BME280;57934;51.532;7.684;2024-03-17T13:13:07;100817.75;;;14.79;nan
70468;BME280;57934;51.532;7.684;2024-03-17T13:15:34;100816.28;;;14.83;nan
70468;BME280;57934;51.532;7.684;2024-03-17T13:18:04;100810.00;;;14.64;nan
70468;BME280;57934;51.532;7.684;2024-03-17T13:20:31;100818.16;;;14.76;nan
70468;BME280;57934;51.532;7.684;2024-03-17T13:22:58;100814.88;;;14.74;nan
70468;BME280;57934;51.532;7.684;2024-03-17T13:25:27;100800.00;;;14.53;nan
70468;BME280;57934;51.532;7.684;2024-03-17T13:27:55;100803.88;;;14.30;nan
70468;BME280;57934;51.532;7.684;2024-03-17T13:30:23;100791.03;;;14.34;nan